createdAt,value
2019-04-25T00:04:26.544Z,7.20
2019-04-25T00:09:29.659Z,7.30
2019-04-25T00:14:31.859Z,7.50
2019-04-25T00:19:33.418Z,7.60
2019-04-25T00:24:36.552Z,7.70
2019-04-25T00:29:37.754Z,7.80
2019-04-25T00:34:38.887Z,8.00
2019-04-25T00:39:41.214Z,8.30
2019-04-25T00:44:44.847Z,8.80
2019-04-25T00:49:46.118Z,9.30
2019-04-25T00:54:47.212Z,9.70
2019-04-25T01:00:02.007Z,9.90
2019-04-25T01:05:05.491Z,10.10
2019-04-25T01:10:07.202Z,10.20
2019-04-25T01:15:11.604Z,10.10
2019-04-25T01:20:13.956Z,10.10
2019-04-25T01:25:15.304Z,9.90
2019-04-25T01:30:18.895Z,10.10
2019-04-25T01:35:23.671Z,10.20
2019-04-25T01:40:38.819Z,10.30
2019-04-25T01:45:40.704Z,10.30
2019-04-25T01:50:43.663Z,10.20
2019-04-25T01:55:53.283Z,10.10
2019-04-25T02:00:50.383Z,10.10
2019-04-25T02:05:53.383Z,10.10
2019-04-25T02:10:58.145Z,10.00
2019-04-25T02:16:00.055Z,9.90
2019-04-25T02:21:01.678Z,9.90
2019-04-25T02:26:15.515Z,9.80
2019-04-25T02:31:08.868Z,9.80
2019-04-25T02:36:10.300Z,9.60
2019-04-25T02:41:11.390Z,9.50
2019-04-25T02:46:20.271Z,9.60
2019-04-25T02:51:32.072Z,9.60
2019-04-25T02:56:35.831Z,9.60
2019-04-25T03:01:36.281Z,9.70
2019-04-25T03:06:37.372Z,9.70
2019-04-25T03:11:38.971Z,9.40
2019-04-25T03:16:41.373Z,9.20
2019-04-25T03:21:55.037Z,9.00
2019-04-25T03:26:56.607Z,8.90
2019-04-25T03:31:57.801Z,8.80
2019-04-25T03:36:58.920Z,8.80
2019-04-25T03:42:00.011Z,8.70
2019-04-25T03:47:01.863Z,8.70
2019-04-25T03:52:05.267Z,8.70
2019-04-25T03:57:07.513Z,8.80
2019-04-25T04:02:09.123Z,8.60
2019-04-25T04:07:11.387Z,8.80
2019-04-25T04:12:14.771Z,8.80
2019-04-25T04:17:35.139Z,8.70
2019-04-25T04:22:40.977Z,8.80
2019-04-25T04:27:43.707Z,8.80
2019-04-25T04:32:45.062Z,8.80
2019-04-25T04:37:46.255Z,8.80
2019-04-25T04:42:47.347Z,8.80
2019-04-25T04:47:48.446Z,8.80
2019-04-25T04:52:49.535Z,8.80
2019-04-25T04:57:50.626Z,9.20
2019-04-25T05:02:53.631Z,9.80
2019-04-25T05:08:03.869Z,10.30
2019-04-25T05:13:05.032Z,10.60
2019-04-25T05:18:06.131Z,11.10
2019-04-25T05:23:08.911Z,11.20
2019-04-25T05:28:10.512Z,11.50
2019-04-25T05:33:11.621Z,11.80
2019-04-25T05:38:14.221Z,12.00
2019-04-25T05:43:16.350Z,12.40
2019-04-25T05:48:17.631Z,12.50
2019-04-25T05:53:18.727Z,12.50
2019-04-25T05:58:20.463Z,12.60
2019-04-25T06:03:21.739Z,12.80
2019-04-25T06:08:25.859Z,13.00
2019-04-25T06:13:29.672Z,13.20
2019-04-25T06:18:38.694Z,13.50
2019-04-25T06:23:50.679Z,13.70
2019-04-25T06:28:58.859Z,13.90
2019-04-25T06:33:54.798Z,14.20
2019-04-25T06:38:55.981Z,14.40
2019-04-25T06:43:58.992Z,14.50
2019-04-25T06:49:08.147Z,14.60
2019-04-25T06:54:09.256Z,14.90
2019-04-25T06:59:10.355Z,15.10
2019-04-25T07:04:11.855Z,15.30
2019-04-25T07:09:14.476Z,15.60
2019-04-25T07:14:15.959Z,16.00
2019-04-25T07:19:17.605Z,16.20
2019-04-25T07:24:19.994Z,16.40
2019-04-25T07:29:29.224Z,16.70
2019-04-25T07:34:30.920Z,16.80
2019-04-25T07:39:33.961Z,17.10
2019-04-25T07:44:47.853Z,17.30
2019-04-25T07:49:38.039Z,17.60
2019-04-25T07:54:39.148Z,18.00
2019-04-25T07:59:43.631Z,18.20
2019-04-25T08:04:44.809Z,18.50
2019-04-25T08:09:45.899Z,18.60
2019-04-25T08:14:48.997Z,18.80
2019-04-25T08:19:50.192Z,18.80
2019-04-25T08:24:51.607Z,19.10
2019-04-25T08:29:54.237Z,19.30
2019-04-25T08:34:55.533Z,19.70
2019-04-25T08:39:56.631Z,20.10
2019-04-25T08:44:57.720Z,20.60
2019-04-25T08:50:00.720Z,20.80
2019-04-25T08:55:04.633Z,21.20
2019-04-25T09:00:09.843Z,21.90
2019-04-25T09:05:19.812Z,23.00
2019-04-25T09:10:21.239Z,24.10
2019-04-25T09:15:23.986Z,24.70
2019-04-25T09:20:25.365Z,25.10
2019-04-25T09:25:26.466Z,26.10
2019-04-25T09:30:27.559Z,26.80
2019-04-25T09:35:29.083Z,26.70
2019-04-25T09:40:30.201Z,26.90
2019-04-25T09:45:36.355Z,26.90
2019-04-25T09:50:39.723Z,26.80
2019-04-25T09:55:54.132Z,27.10
2019-04-25T10:01:13.912Z,27.40
2019-04-25T10:06:16.381Z,27.20
2019-04-25T10:11:17.904Z,27.50
2019-04-25T10:16:18.998Z,27.90
2019-04-25T10:21:20.496Z,28.10
2019-04-25T10:26:22.198Z,28.40
2019-04-25T10:31:23.799Z,29.10
2019-04-25T10:36:25.422Z,29.50
2019-04-25T10:41:26.524Z,29.90
2019-04-25T10:46:27.729Z,29.50
2019-04-25T10:51:28.826Z,29.30
2019-04-25T10:56:30.024Z,29.90
2019-04-25T11:01:31.568Z,29.90
2019-04-25T11:06:33.636Z,30.30
2019-04-25T11:11:35.176Z,29.80
2019-04-25T11:16:36.258Z,29.80
2019-04-25T11:21:37.455Z,30.70
2019-04-25T11:26:38.768Z,30.80
2019-04-25T11:31:41.894Z,31.00
2019-04-25T11:36:43.927Z,29.50
2019-04-25T11:41:46.249Z,28.10
2019-04-25T11:46:48.635Z,29.40
2019-04-25T11:51:50.276Z,31.60
2019-04-25T11:56:51.644Z,31.90
2019-04-25T12:01:54.804Z,30.30
2019-04-25T12:06:55.937Z,30.80
2019-04-25T12:11:57.191Z,31.90
2019-04-25T12:16:58.435Z,32.00
2019-04-25T12:21:59.539Z,31.90
2019-04-25T12:27:01.136Z,32.80
2019-04-25T12:32:03.911Z,32.90
2019-04-25T12:37:05.359Z,32.90
2019-04-25T12:42:06.863Z,32.10
2019-04-25T12:47:09.861Z,32.50
2019-04-25T12:52:11.351Z,33.20
2019-04-25T12:57:14.163Z,34.50
2019-04-25T13:02:15.584Z,35.60
2019-04-25T13:07:16.794Z,36.40
2019-04-25T13:12:18.189Z,35.50
2019-04-25T13:17:19.932Z,33.70
2019-04-25T13:22:21.515Z,34.20
2019-04-25T13:27:24.510Z,34.40
2019-04-25T13:32:27.624Z,35.00
2019-04-25T13:37:28.741Z,35.10
2019-04-25T13:42:29.833Z,34.50
2019-04-25T13:47:31.932Z,35.00
2019-04-25T13:52:35.754Z,34.30
2019-04-25T13:57:36.369Z,32.40
2019-04-25T14:02:37.568Z,32.40
2019-04-25T14:07:38.763Z,32.00
2019-04-25T14:12:40.067Z,32.70
2019-04-25T14:17:44.740Z,35.00
2019-04-25T14:22:46.190Z,35.20
2019-04-25T14:27:47.296Z,36.10
2019-04-25T14:32:48.427Z,35.20
2019-04-25T14:37:49.539Z,34.10
2019-04-25T14:42:50.849Z,34.40
2019-04-25T14:47:52.033Z,35.20
2019-04-25T14:52:53.246Z,35.50
2019-04-25T14:57:55.456Z,35.60
2019-04-25T15:02:56.639Z,37.50
2019-04-25T15:07:57.738Z,36.70
2019-04-25T15:12:58.957Z,34.00
2019-04-25T15:18:00.164Z,33.70
2019-04-25T15:23:01.392Z,34.10
2019-04-25T15:28:02.807Z,34.70
2019-04-25T15:33:05.915Z,33.30
2019-04-25T15:38:25.687Z,31.80
2019-04-25T15:43:28.793Z,32.70
2019-04-25T15:48:29.982Z,34.30
2019-04-25T15:53:31.291Z,34.90
2019-04-25T15:58:32.392Z,34.60
2019-04-25T16:03:33.496Z,32.40
2019-04-25T16:08:35.130Z,30.60
2019-04-25T16:13:36.388Z,28.60
2019-04-25T16:18:37.868Z,27.60
2019-04-25T16:23:39.216Z,26.90
2019-04-25T16:28:40.306Z,26.30
2019-04-25T16:33:42.119Z,25.60
2019-04-25T16:38:43.402Z,25.60
2019-04-25T16:43:46.547Z,25.80
2019-04-25T16:48:47.656Z,25.30
2019-04-25T16:53:48.850Z,24.90
2019-04-25T16:58:50.042Z,24.90
2019-04-25T17:03:51.241Z,24.50
2019-04-25T17:08:52.347Z,24.10
2019-04-25T17:13:55.386Z,24.00
2019-04-25T17:18:58.407Z,24.10
2019-04-25T17:24:00.300Z,24.10
2019-04-25T17:29:03.648Z,23.80
2019-04-25T17:34:07.158Z,23.60
2019-04-25T17:39:10.180Z,23.90
2019-04-25T17:44:23.240Z,24.10
2019-04-25T17:49:24.378Z,23.70
2019-04-25T17:54:25.498Z,23.10
2019-04-25T17:59:26.617Z,22.60
2019-04-25T18:04:27.941Z,22.30
2019-04-25T18:09:29.049Z,22.40
2019-04-25T18:14:30.295Z,22.30
2019-04-25T18:19:36.381Z,21.80
2019-04-25T18:24:57.757Z,21.40
2019-04-25T18:29:59.005Z,20.90
2019-04-25T18:35:02.122Z,20.50
2019-04-25T18:40:06.661Z,20.20
2019-04-25T18:45:09.855Z,19.80
2019-04-25T18:50:13.075Z,19.70
2019-04-25T18:55:33.293Z,19.20
2019-04-25T19:00:39.229Z,18.90
2019-04-25T19:05:42.834Z,18.60
2019-04-25T19:10:45.101Z,18.30
2019-04-25T19:15:47.205Z,18.00
2019-04-25T19:20:48.648Z,17.80
2019-04-25T19:25:49.969Z,17.40
2019-04-25T19:30:51.699Z,17.00
2019-04-25T19:35:53.123Z,16.60
2019-04-25T19:40:59.159Z,16.30
2019-04-25T19:46:00.280Z,16.10
2019-04-25T19:51:01.367Z,16.10
2019-04-25T19:56:02.793Z,15.80
2019-04-25T20:01:03.964Z,15.50
2019-04-25T20:06:22.882Z,15.30
2019-04-25T20:11:31.714Z,14.90
2019-04-25T20:16:34.825Z,14.70
2019-04-25T20:21:35.968Z,14.50
2019-04-25T20:26:37.105Z,14.10
2019-04-25T20:31:38.236Z,13.80
2019-04-25T20:36:39.341Z,13.60
2019-04-25T20:41:40.579Z,13.30
2019-04-25T20:46:41.687Z,13.10
2019-04-25T20:51:42.798Z,12.90
2019-04-25T20:56:43.916Z,12.70
2019-04-25T21:01:45.140Z,12.50
2019-04-25T21:06:46.469Z,12.40
2019-04-25T21:11:47.667Z,12.10
2019-04-25T21:16:59.707Z,11.90
2019-04-25T21:22:01.143Z,11.70
2019-04-25T21:27:02.878Z,11.50
2019-04-25T21:32:04.590Z,11.30
2019-04-25T21:37:05.809Z,11.20
2019-04-25T21:42:12.106Z,11.10
2019-04-25T21:47:13.595Z,11.00
2019-04-25T21:52:15.101Z,10.90
2019-04-25T21:57:16.513Z,10.70
2019-04-25T22:02:18.690Z,10.70
2019-04-25T22:07:20.198Z,10.50
2019-04-25T22:12:22.010Z,10.20
2019-04-25T22:17:23.107Z,10.10
2019-04-25T22:22:24.605Z,9.90
2019-04-25T22:27:27.710Z,9.90
2019-04-25T22:32:39.584Z,9.90
2019-04-25T22:37:40.680Z,9.90
2019-04-25T22:42:42.088Z,9.90
2019-04-25T22:47:43.297Z,9.80
2019-04-25T22:52:44.376Z,9.80
2019-04-25T22:57:45.496Z,9.60
2019-04-25T23:02:54.411Z,9.40
2019-04-25T23:07:55.510Z,9.30
2019-04-25T23:12:57.151Z,9.20
2019-04-25T23:17:58.327Z,9.00
2019-04-25T23:22:59.506Z,9.00
2019-04-25T23:28:03.632Z,8.80
2019-04-25T23:33:06.678Z,8.70
2019-04-25T23:38:09.289Z,8.60
2019-04-25T23:43:11.755Z,8.40
2019-04-25T23:48:14.410Z,8.50
2019-04-25T23:53:15.656Z,8.50
2019-04-25T23:58:18.006Z,8.40
